createdAt,value
2023-02-22T00:01:40.199Z,99281.38
2023-02-22T00:04:13.264Z,99279.68
2023-02-22T00:06:47.608Z,99285.39
2023-02-22T00:09:21.623Z,99291.82
2023-02-22T00:11:54.270Z,99289.25
2023-02-22T00:14:27.587Z,99292.29
2023-02-22T00:17:01.082Z,99294.97
2023-02-22T00:19:34.218Z,99301.19
2023-02-22T00:22:08.120Z,99307.20
2023-02-22T00:24:41.755Z,99308.23
2023-02-22T00:27:15.044Z,99311.23
2023-02-22T00:29:47.963Z,99315.08
2023-02-22T00:32:20.684Z,99311.27
2023-02-22T00:34:56.273Z,99321.97
2023-02-22T00:37:31.315Z,99327.06
2023-02-22T00:40:05.552Z,99341.11
2023-02-22T00:42:38.139Z,99337.09
2023-02-22T00:45:11.321Z,99347.22
2023-02-22T00:47:43.708Z,99354.02
2023-02-22T00:50:16.781Z,99359.66
2023-02-22T00:52:49.362Z,99364.38
2023-02-22T00:55:26.548Z,99371.33
2023-02-22T00:57:59.243Z,99377.81
2023-02-22T01:00:38.606Z,99392.80
2023-02-22T01:03:13.451Z,99390.83
2023-02-22T01:05:46.145Z,99402.86
2023-02-22T01:08:19.168Z,99399.78
2023-02-22T01:10:52.681Z,99409.34
2023-02-22T01:13:25.334Z,99411.48
2023-02-22T01:15:57.988Z,99423.21
2023-02-22T01:18:30.514Z,99423.21
2023-02-22T01:21:03.438Z,99423.72
2023-02-22T01:23:35.789Z,99425.81
2023-02-22T01:26:09.249Z,99424.60
2023-02-22T01:28:41.836Z,99427.00
2023-02-22T01:31:14.983Z,99439.91
2023-02-22T01:33:48.459Z,99442.27
2023-02-22T01:36:22.378Z,99437.63
2023-02-22T01:38:55.165Z,99444.02
2023-02-22T01:41:27.539Z,99451.84
2023-02-22T01:44:00.162Z,99455.25
2023-02-22T01:46:32.759Z,99448.37
2023-02-22T01:49:10.392Z,99461.17
2023-02-22T01:51:47.507Z,99464.61
2023-02-22T01:54:32.540Z,99475.90
2023-02-22T01:57:18.669Z,99474.93
2023-02-22T01:59:53.809Z,99491.33
2023-02-22T02:02:26.103Z,99490.77
2023-02-22T02:04:59.501Z,99496.30
2023-02-22T02:07:32.302Z,99496.97
2023-02-22T02:10:14.784Z,99502.04
2023-02-22T02:12:49.058Z,99508.91
2023-02-22T02:15:33.435Z,99504.72
2023-02-22T02:18:08.390Z,99520.39
2023-02-22T02:21:02.731Z,99521.33
2023-02-22T02:23:44.179Z,99526.30
2023-02-22T02:26:59.911Z,99534.91
2023-02-22T02:29:46.012Z,99537.95
2023-02-22T02:32:32.259Z,99538.42
2023-02-22T02:35:29.439Z,99548.06
2023-02-22T02:38:25.123Z,99550.83
2023-02-22T02:41:05.963Z,99551.51
2023-02-22T02:44:00.375Z,99553.59
2023-02-22T02:46:39.990Z,99562.95
2023-02-22T02:49:22.469Z,99561.44
2023-02-22T02:51:56.332Z,99570.42
2023-02-22T02:54:28.893Z,99574.70
2023-02-22T02:57:01.570Z,99573.95
2023-02-22T02:59:38.110Z,99586.85
2023-02-22T03:02:48.125Z,99588.56
2023-02-22T03:05:52.269Z,99597.92
2023-02-22T03:08:44.928Z,99599.91
2023-02-22T03:11:23.753Z,99603.64
2023-02-22T03:14:14.108Z,99605.81
2023-02-22T03:16:56.079Z,99616.41
2023-02-22T03:19:45.603Z,99617.56
2023-02-22T03:22:25.020Z,99625.03
2023-02-22T03:25:12.140Z,99625.58
2023-02-22T03:27:59.836Z,99633.88
2023-02-22T03:30:48.930Z,99633.05
2023-02-22T03:33:36.394Z,99639.64
2023-02-22T03:36:31.466Z,99648.44
2023-02-22T03:39:04.466Z,99660.16
2023-02-22T03:41:38.842Z,99660.66
2023-02-22T03:44:13.838Z,99661.20
2023-02-22T03:46:46.900Z,99670.46
2023-02-22T03:49:41.852Z,99679.80
2023-02-22T03:52:14.536Z,99681.50
2023-02-22T03:54:47.622Z,99692.37
2023-02-22T03:57:26.783Z,99700.45
2023-02-22T04:00:00.943Z,99699.39
2023-02-22T04:02:33.860Z,99702.70
2023-02-22T04:05:06.653Z,99702.22
2023-02-22T04:07:39.319Z,99705.95
2023-02-22T04:10:13.413Z,99712.34
2023-02-22T04:12:46.214Z,99711.39
2023-02-22T04:15:22.458Z,99718.15
2023-02-22T04:17:56.570Z,99722.73
2023-02-22T04:20:29.082Z,99728.42
2023-02-22T04:23:03.839Z,99728.22
2023-02-22T04:25:36.216Z,99716.92
2023-02-22T04:28:10.294Z,99732.10
2023-02-22T04:30:44.320Z,99731.23
2023-02-22T04:33:19.034Z,99741.73
2023-02-22T04:35:51.750Z,99746.03
2023-02-22T04:38:26.165Z,99747.54
2023-02-22T04:41:00.329Z,99753.38
2023-02-22T04:43:32.768Z,99758.80
2023-02-22T04:46:06.986Z,99767.56
2023-02-22T04:48:39.462Z,99775.28
2023-02-22T04:51:11.985Z,99778.33
2023-02-22T04:53:46.869Z,99778.25
2023-02-22T04:56:20.454Z,99780.45
2023-02-22T04:58:53.641Z,99782.75
2023-02-22T05:01:26.066Z,99791.13
2023-02-22T05:03:58.354Z,99800.23
2023-02-22T05:06:31.308Z,99800.61
2023-02-22T05:09:03.995Z,99804.06
2023-02-22T05:11:37.488Z,99810.83
2023-02-22T05:14:09.790Z,99814.83
2023-02-22T05:16:42.917Z,99820.17
2023-02-22T05:19:15.677Z,99827.14
2023-02-22T05:21:48.108Z,99825.89
2023-02-22T05:24:21.288Z,99836.91
2023-02-22T05:26:53.751Z,99837.73
2023-02-22T05:29:26.279Z,99845.03
2023-02-22T05:31:59.032Z,99855.87
2023-02-22T05:34:31.420Z,99860.91
2023-02-22T05:37:03.872Z,99870.25
2023-02-22T05:39:37.799Z,99873.55
2023-02-22T05:42:10.664Z,99880.14
2023-02-22T05:44:43.036Z,99884.38
2023-02-22T05:47:15.659Z,99891.55
2023-02-22T05:49:48.059Z,99901.35
2023-02-22T05:52:20.574Z,99909.90
2023-02-22T05:54:53.064Z,99911.65
2023-02-22T05:57:25.363Z,99909.90
2023-02-22T05:59:58.064Z,99910.93
2023-02-22T06:02:30.555Z,99911.73
2023-02-22T06:05:03.353Z,99921.30
2023-02-22T06:07:36.083Z,99926.17
2023-02-22T06:10:08.735Z,99934.26
2023-02-22T06:12:41.716Z,99938.34
2023-02-22T06:15:16.512Z,99941.55
2023-02-22T06:17:49.284Z,99950.51
2023-02-22T06:20:24.565Z,99955.11
2023-02-22T06:22:58.575Z,99951.38
2023-02-22T06:25:32.620Z,99947.51
2023-02-22T06:28:05.458Z,99954.10
2023-02-22T06:30:38.132Z,99955.44
2023-02-22T06:33:11.450Z,99965.16
2023-02-22T06:35:43.897Z,99972.80
2023-02-22T06:38:26.071Z,99974.20
2023-02-22T06:40:58.750Z,99980.38
2023-02-22T06:43:31.859Z,99977.48
2023-02-22T06:46:04.268Z,99981.73
2023-02-22T06:48:40.263Z,99987.09
2023-02-22T06:51:12.578Z,99992.30
2023-02-22T06:53:45.700Z,99990.22
2023-02-22T06:56:18.187Z,99993.89
2023-02-22T06:58:50.628Z,99995.53
2023-02-22T07:01:23.385Z,99997.78
2023-02-22T07:03:57.150Z,99999.80
2023-02-22T07:06:30.947Z,100005.77
2023-02-22T07:09:03.777Z,100008.23
2023-02-22T07:11:37.556Z,100008.30
2023-02-22T07:14:10.875Z,100004.09
2023-02-22T07:16:43.470Z,100014.42
2023-02-22T07:19:15.897Z,100015.25
2023-02-22T07:21:48.215Z,100018.11
2023-02-22T07:24:20.655Z,100016.89
2023-02-22T07:26:54.140Z,100023.77
2023-02-22T07:29:26.689Z,100020.11
2023-02-22T07:31:59.887Z,100028.13
2023-02-22T07:34:32.447Z,100033.81
2023-02-22T07:37:04.771Z,100034.32
2023-02-22T07:39:38.381Z,100037.41
2023-02-22T07:42:11.249Z,100039.88
2023-02-22T07:44:43.635Z,100046.37
2023-02-22T07:47:16.255Z,100046.48
2023-02-22T07:49:50.438Z,100045.77
2023-02-22T07:52:23.001Z,100049.89
2023-02-22T07:54:55.402Z,100051.80
2023-02-22T07:57:27.831Z,100059.84
2023-02-22T08:00:00.133Z,100060.43
2023-02-22T08:02:32.762Z,100060.72
2023-02-22T08:05:06.702Z,100063.39
2023-02-22T08:07:43.400Z,100060.09
2023-02-22T08:10:16.879Z,100059.92
2023-02-22T08:12:50.922Z,100074.17
2023-02-22T08:15:30.034Z,100063.49
2023-02-22T08:18:03.589Z,100064.84
2023-02-22T08:20:35.950Z,100069.74
2023-02-22T08:23:10.961Z,100072.23
2023-02-22T08:25:43.616Z,100062.94
2023-02-22T08:28:22.856Z,100081.63
2023-02-22T08:30:55.350Z,100081.72
2023-02-22T08:33:29.163Z,100081.16
2023-02-22T08:36:02.093Z,100078.08
2023-02-22T08:38:35.957Z,100086.84
2023-02-22T08:41:08.626Z,100086.59
2023-02-22T08:43:41.056Z,100083.05
2023-02-22T08:46:13.667Z,100085.70
2023-02-22T08:48:53.003Z,100085.42
2023-02-22T08:51:27.756Z,100087.33
2023-02-22T08:54:00.198Z,100086.88
2023-02-22T08:56:33.309Z,100092.34
2023-02-22T08:59:06.120Z,100091.47
2023-02-22T09:01:39.019Z,100091.76
2023-02-22T09:04:11.853Z,100094.93
2023-02-22T09:06:47.437Z,100093.91
2023-02-22T09:09:21.679Z,100097.09
2023-02-22T09:11:54.067Z,100100.81
2023-02-22T09:14:26.520Z,100096.89
2023-02-22T09:16:59.229Z,100092.80
2023-02-22T09:19:32.290Z,100099.44
2023-02-22T09:22:05.026Z,100095.91
2023-02-22T09:24:37.468Z,100098.72
2023-02-22T09:27:11.626Z,100099.25
2023-02-22T09:29:44.108Z,100096.57
2023-02-22T09:32:19.744Z,100103.58
2023-02-22T09:34:52.445Z,100100.86
2023-02-22T09:37:25.474Z,100099.88
2023-02-22T09:39:57.889Z,100109.69
2023-02-22T09:42:36.408Z,100104.37
2023-02-22T09:45:16.378Z,100104.28
2023-02-22T09:47:57.648Z,100105.88
2023-02-22T09:50:35.786Z,100106.24
2023-02-22T09:53:31.456Z,100100.22
2023-02-22T09:56:17.665Z,100100.33
2023-02-22T09:58:53.997Z,100103.43
2023-02-22T10:01:39.491Z,100103.04
2023-02-22T10:04:34.796Z,100102.34
2023-02-22T10:07:14.819Z,100099.53
2023-02-22T10:09:49.734Z,100102.50
2023-02-22T10:12:51.273Z,100103.28
2023-02-22T10:15:41.276Z,100103.10
2023-02-22T10:19:00.278Z,100099.09
2023-02-22T10:21:53.641Z,100100.44
2023-02-22T10:24:39.846Z,100100.12
2023-02-22T10:27:22.522Z,100099.92
2023-02-22T10:30:05.583Z,100106.91
2023-02-22T10:32:45.624Z,100106.22
2023-02-22T10:35:25.707Z,100105.78
2023-02-22T10:38:02.714Z,100103.48
2023-02-22T10:40:35.104Z,100105.17
2023-02-22T10:43:09.175Z,100109.05
2023-02-22T10:45:41.698Z,100104.14
2023-02-22T10:48:18.689Z,100101.59
2023-02-22T10:50:51.040Z,100107.04
2023-02-22T10:53:24.095Z,100100.50
2023-02-22T10:56:21.347Z,100104.39
2023-02-22T10:59:03.936Z,100105.64
2023-02-22T11:01:41.056Z,100095.64
2023-02-22T11:04:23.608Z,100094.92
2023-02-22T11:07:06.794Z,100096.66
2023-02-22T11:09:54.312Z,100103.64
2023-02-22T11:12:39.463Z,100099.67
2023-02-22T11:15:25.978Z,100096.92
2023-02-22T11:18:01.044Z,100100.45
2023-02-22T11:20:38.586Z,100102.58
2023-02-22T11:23:12.467Z,100105.63
2023-02-22T11:25:44.922Z,100110.59
2023-02-22T11:28:33.120Z,100116.58
2023-02-22T11:31:19.678Z,100113.42
2023-02-22T11:34:01.360Z,100119.98
2023-02-22T11:36:42.008Z,100115.80
2023-02-22T11:39:34.678Z,100120.04
2023-02-22T11:42:25.412Z,100123.75
2023-02-22T11:45:23.379Z,100132.08
2023-02-22T11:48:01.539Z,100130.88
2023-02-22T11:51:00.326Z,100123.88
2023-02-22T11:54:05.237Z,100126.75
2023-02-22T11:56:44.632Z,100124.87
2023-02-22T11:59:42.618Z,100129.53
2023-02-22T12:02:31.859Z,100123.92
2023-02-22T12:05:30.094Z,100129.89
2023-02-22T12:08:28.829Z,100121.98
2023-02-22T12:11:27.257Z,100124.82
2023-02-22T12:14:11.585Z,100124.33
2023-02-22T12:17:03.795Z,100125.91
2023-02-22T12:19:52.304Z,100134.20
2023-02-22T12:22:33.570Z,100128.53
2023-02-22T12:25:32.119Z,100125.73
2023-02-22T12:28:23.670Z,100137.47
2023-02-22T12:30:50.283Z,100128.35
2023-02-22T12:33:27.829Z,100143.30
2023-02-22T12:36:01.065Z,100145.54
2023-02-22T12:38:39.548Z,100152.15
2023-02-22T12:41:19.489Z,100151.09
2023-02-22T12:44:02.699Z,100153.77
2023-02-22T12:46:41.762Z,100155.58
2023-02-22T12:49:42.405Z,100147.89
2023-02-22T12:52:49.456Z,100145.58
2023-02-22T12:55:45.188Z,100155.19
2023-02-22T12:58:37.120Z,100160.23
2023-02-22T13:01:22.427Z,100161.18
2023-02-22T13:03:56.192Z,100162.33
2023-02-22T13:06:48.732Z,100159.91
2023-02-22T13:10:15.535Z,100170.21
2023-02-22T13:13:08.611Z,100163.31
2023-02-22T13:16:01.677Z,100162.84
2023-02-22T13:18:44.566Z,100163.86
2023-02-22T13:21:41.662Z,100171.42
2023-02-22T13:24:22.067Z,100167.20
2023-02-22T13:26:59.525Z,100166.21
2023-02-22T13:29:43.695Z,100173.55
2023-02-22T13:32:55.405Z,100175.39
2023-02-22T13:35:59.463Z,100173.08
2023-02-22T13:39:07.881Z,100176.11
2023-02-22T13:42:00.144Z,100181.00
2023-02-22T13:44:55.884Z,100176.55
2023-02-22T13:47:52.744Z,100188.78
2023-02-22T13:51:11.003Z,100186.16
2023-02-22T13:54:02.666Z,100187.34
2023-02-22T13:56:36.233Z,100183.48
2023-02-22T13:59:08.607Z,100185.66
2023-02-22T14:01:49.131Z,100190.17
2023-02-22T14:04:35.018Z,100188.34
2023-02-22T14:07:21.463Z,100194.38
2023-02-22T14:10:00.104Z,100200.83
2023-02-22T14:12:50.234Z,100202.38
2023-02-22T14:15:31.239Z,100207.53
2023-02-22T14:18:07.509Z,100214.39
2023-02-22T14:20:40.602Z,100211.89
2023-02-22T14:23:40.881Z,100215.48
2023-02-22T14:26:37.177Z,100216.77
2023-02-22T14:29:18.871Z,100222.45
2023-02-22T14:31:56.365Z,100220.03
2023-02-22T14:34:44.765Z,100220.03
2023-02-22T14:37:33.216Z,100220.91
2023-02-22T14:40:21.702Z,100227.98
2023-02-22T14:43:11.033Z,100224.67
2023-02-22T14:45:51.143Z,100232.64
2023-02-22T14:48:42.939Z,100236.69
2023-02-22T14:51:29.507Z,100231.98
2023-02-22T14:54:29.440Z,100219.23
2023-02-22T14:57:21.687Z,100225.92
2023-02-22T15:00:24.423Z,100231.59
2023-02-22T15:02:59.058Z,100231.30
2023-02-22T15:05:39.773Z,100242.31
2023-02-22T15:08:14.212Z,100244.84
2023-02-22T15:10:48.663Z,100247.67
2023-02-22T15:13:27.420Z,100258.45
2023-02-22T15:16:03.090Z,100258.38
2023-02-22T15:18:47.945Z,100263.23
2023-02-22T15:21:24.044Z,100258.61
2023-02-22T15:24:05.220Z,100261.14
2023-02-22T15:27:00.391Z,100263.89
2023-02-22T15:29:45.953Z,100269.16
2023-02-22T15:32:38.567Z,100277.86
2023-02-22T15:35:25.576Z,100275.88
2023-02-22T15:38:07.812Z,100280.45
2023-02-22T15:40:42.128Z,100279.10
2023-02-22T15:43:22.764Z,100282.88
2023-02-22T15:45:56.148Z,100282.95
2023-02-22T15:48:28.984Z,100289.62
2023-02-22T15:51:14.528Z,100289.21
2023-02-22T15:53:48.168Z,100294.97
2023-02-22T15:56:26.673Z,100295.27
2023-02-22T15:59:13.188Z,100300.12
2023-02-22T16:01:48.024Z,100305.00
2023-02-22T16:04:27.613Z,100306.09
2023-02-22T16:07:10.791Z,100316.13
2023-02-22T16:09:49.332Z,100315.42
2023-02-22T16:12:27.499Z,100321.94
2023-02-22T16:15:00.031Z,100328.27
2023-02-22T16:17:55.929Z,100335.36
2023-02-22T16:20:26.019Z,100338.66
2023-02-22T16:22:59.273Z,100341.64
2023-02-22T16:25:37.018Z,100351.14
2023-02-22T16:28:35.697Z,100351.20
2023-02-22T16:31:10.551Z,100354.90
2023-02-22T16:33:45.032Z,100353.42
2023-02-22T16:36:17.314Z,100356.34
2023-02-22T16:38:52.452Z,100364.70
2023-02-22T16:41:26.176Z,100370.50
2023-02-22T16:43:58.983Z,100365.61
2023-02-22T16:46:32.200Z,100377.39
2023-02-22T16:49:05.219Z,100375.17
2023-02-22T16:51:54.923Z,100380.52
2023-02-22T16:54:42.849Z,100374.27
2023-02-22T16:57:21.332Z,100376.83
2023-02-22T16:59:55.543Z,100385.37
2023-02-22T17:02:28.302Z,100381.61
2023-02-22T17:05:00.870Z,100385.58
2023-02-22T17:07:33.668Z,100386.84
2023-02-22T17:10:06.497Z,100386.00
2023-02-22T17:12:40.695Z,100386.14
2023-02-22T17:15:23.551Z,100383.36
2023-02-22T17:17:56.537Z,100391.94
2023-02-22T17:20:32.116Z,100394.88
2023-02-22T17:23:08.870Z,100391.40
2023-02-22T17:25:45.406Z,100390.13
2023-02-22T17:28:17.947Z,100400.88
2023-02-22T17:30:51.630Z,100399.16
2023-02-22T17:33:28.494Z,100405.06
2023-02-22T17:36:02.032Z,100412.90
2023-02-22T17:38:34.945Z,100414.66
2023-02-22T17:41:07.622Z,100414.97
2023-02-22T17:43:40.912Z,100416.77
2023-02-22T17:46:13.233Z,100427.20
2023-02-22T17:48:45.731Z,100424.52
2023-02-22T17:51:19.860Z,100420.45
2023-02-22T17:53:52.184Z,100431.94
2023-02-22T17:56:24.589Z,100428.78
2023-02-22T17:58:57.900Z,100429.86
2023-02-22T18:01:31.883Z,100435.47
2023-02-22T18:04:05.447Z,100432.48
2023-02-22T18:06:40.152Z,100433.50
2023-02-22T18:09:14.291Z,100436.16
2023-02-22T18:11:47.817Z,100438.28
2023-02-22T18:14:26.149Z,100437.70
2023-02-22T18:16:58.526Z,100450.30
2023-02-22T18:19:31.721Z,100449.26
2023-02-22T18:22:04.864Z,100452.45
2023-02-22T18:24:38.210Z,100454.17
2023-02-22T18:27:12.052Z,100452.64
2023-02-22T18:29:45.741Z,100445.09
2023-02-22T18:32:18.240Z,100453.52
2023-02-22T18:34:51.278Z,100453.78
2023-02-22T18:37:23.664Z,100446.72
2023-02-22T18:39:59.558Z,100453.12
2023-02-22T18:42:32.272Z,100453.03
2023-02-22T18:45:06.146Z,100458.09
2023-02-22T18:47:43.670Z,100459.98
2023-02-22T18:50:19.261Z,100455.62
2023-02-22T18:52:51.905Z,100461.13
2023-02-22T18:55:24.504Z,100466.73
2023-02-22T18:57:57.377Z,100460.97
2023-02-22T19:00:29.633Z,100469.47
2023-02-22T19:03:02.316Z,100471.88
2023-02-22T19:05:36.543Z,100477.55
2023-02-22T19:08:11.546Z,100484.86
2023-02-22T19:10:44.740Z,100487.53
2023-02-22T19:13:19.061Z,100482.62
2023-02-22T19:15:51.456Z,100492.03
2023-02-22T19:18:25.161Z,100495.97
2023-02-22T19:20:59.770Z,100503.28
2023-02-22T19:23:34.966Z,100503.41
2023-02-22T19:26:08.484Z,100499.86
2023-02-22T19:28:40.732Z,100502.89
2023-02-22T19:31:31.710Z,100503.93
2023-02-22T19:34:09.368Z,100509.76
2023-02-22T19:36:46.103Z,100502.82
2023-02-22T19:39:20.771Z,100509.27
2023-02-22T19:41:53.245Z,100508.30
2023-02-22T19:44:26.020Z,100511.81
2023-02-22T19:46:58.319Z,100509.42
2023-02-22T19:49:31.042Z,100514.67
2023-02-22T19:52:03.970Z,100512.88
2023-02-22T19:54:37.958Z,100514.09
2023-02-22T19:57:10.268Z,100519.36
2023-02-22T19:59:42.706Z,100520.62
2023-02-22T20:02:15.248Z,100522.84
2023-02-22T20:04:49.312Z,100529.16
2023-02-22T20:07:21.717Z,100537.98
2023-02-22T20:09:55.020Z,100535.05
2023-02-22T20:12:27.601Z,100544.65
2023-02-22T20:15:00.352Z,100552.19
2023-02-22T20:17:33.055Z,100553.68
2023-02-22T20:20:07.028Z,100559.37
2023-02-22T20:22:40.729Z,100560.56
2023-02-22T20:25:13.780Z,100573.20
2023-02-22T20:27:46.835Z,100564.92
2023-02-22T20:30:19.635Z,100573.44
2023-02-22T20:32:52.300Z,100573.16
2023-02-22T20:35:24.798Z,100577.22
2023-02-22T20:37:57.790Z,100579.94
2023-02-22T20:40:30.211Z,100578.39
2023-02-22T20:43:02.583Z,100587.50
2023-02-22T20:45:39.321Z,100589.56
2023-02-22T20:48:12.493Z,100595.44
2023-02-22T20:50:44.900Z,100595.61
2023-02-22T20:53:18.405Z,100593.52
2023-02-22T20:55:52.846Z,100594.22
2023-02-22T20:58:25.274Z,100597.34
2023-02-22T21:00:59.654Z,100598.78
2023-02-22T21:03:34.412Z,100597.73
2023-02-22T21:06:08.230Z,100602.67
2023-02-22T21:08:40.576Z,100605.50
2023-02-22T21:11:17.928Z,100611.27
2023-02-22T21:13:51.083Z,100612.17
2023-02-22T21:16:28.622Z,100615.77
2023-02-22T21:19:04.630Z,100632.47
2023-02-22T21:21:37.533Z,100632.09
2023-02-22T21:24:11.768Z,100634.82
2023-02-22T21:26:44.220Z,100636.87
2023-02-22T21:29:16.706Z,100638.88
2023-02-22T21:31:49.859Z,100639.97
2023-02-22T21:34:22.533Z,100642.86
2023-02-22T21:36:54.928Z,100642.12
2023-02-22T21:39:29.077Z,100656.39
2023-02-22T21:42:02.553Z,100649.39
2023-02-22T21:44:35.608Z,100654.03
2023-02-22T21:47:08.667Z,100657.25
2023-02-22T21:49:41.146Z,100656.86
2023-02-22T21:52:14.540Z,100665.05
2023-02-22T21:54:47.853Z,100671.37
2023-02-22T21:57:20.352Z,100669.31
2023-02-22T21:59:53.352Z,100676.61
2023-02-22T22:02:26.796Z,100679.83
2023-02-22T22:05:00.299Z,100686.48
2023-02-22T22:07:33.261Z,100688.84
2023-02-22T22:10:07.000Z,100692.59
2023-02-22T22:12:41.116Z,100690.78
2023-02-22T22:15:17.029Z,100696.25
2023-02-22T22:17:50.044Z,100701.86
2023-02-22T22:20:22.425Z,100702.75
2023-02-22T22:22:55.093Z,100708.27
2023-02-22T22:25:28.514Z,100710.73
2023-02-22T22:28:01.336Z,100708.08
2023-02-22T22:30:37.222Z,100711.02
2023-02-22T22:33:11.499Z,100721.07
2023-02-22T22:35:43.973Z,100715.09
2023-02-22T22:38:17.241Z,100718.34
2023-02-22T22:40:51.931Z,104306.36
2023-02-22T22:43:24.448Z,100717.47
2023-02-22T22:46:00.593Z,100715.17
2023-02-22T22:48:36.142Z,100724.30
2023-02-22T22:51:11.346Z,100719.29
2023-02-22T22:53:46.680Z,100723.55
2023-02-22T22:56:24.571Z,100721.63
2023-02-22T22:58:59.097Z,100722.77
2023-02-22T23:01:33.865Z,100730.39
2023-02-22T23:04:09.767Z,100726.40
2023-02-22T23:06:47.882Z,100732.72
2023-02-22T23:09:28.391Z,100735.98
2023-02-22T23:12:04.563Z,100732.97
2023-02-22T23:14:42.212Z,100740.50
2023-02-22T23:17:18.401Z,100742.75
2023-02-22T23:19:51.790Z,100741.46
2023-02-22T23:22:24.326Z,100747.27
2023-02-22T23:24:58.645Z,100758.05
2023-02-22T23:27:30.440Z,100758.09
2023-02-22T23:30:02.930Z,100763.41
2023-02-22T23:32:35.430Z,100760.90
2023-02-22T23:35:08.690Z,100759.13
2023-02-22T23:37:42.800Z,100763.19
2023-02-22T23:40:18.337Z,100766.45
2023-02-22T23:42:51.815Z,100766.59
2023-02-22T23:45:25.308Z,100777.30
2023-02-22T23:48:00.374Z,100774.35
2023-02-22T23:50:35.138Z,100775.27
2023-02-22T23:53:09.525Z,100780.63
2023-02-22T23:55:44.387Z,100781.95
2023-02-22T23:58:17.428Z,100786.34
